<?xml version="1.0" encoding="UTF-8" standalone="no" ?>
<gpx xmlns="http://www.topografix.com/GPX/1/1" xmlns:xsi="http://www.w3.org/2001/XMLSchema-instance" xsi:schemaLocation="http://www.topografix.com/GPX/1/1 http://www.topografix.com/GPX/1/1/gpx.xsd" version="1.1" creator="VisuGPX - https://www.visugpx.com">
  <metadata>
    <name>VTT Jouques</name>
    <desc><![CDATA[A la recherche de sentiers sur Vautubière]]></desc>
  </metadata>
  <trk>
    <name><![CDATA[VTT - Jouques]]></name>
    <trkseg>
      <trkpt lat="43.6368" lon="5.63793">
        <ele>268.39999389648</ele>
        <time>2013-01-12T08:39:30.000Z</time>
      </trkpt>
      <trkpt lat="43.63708" lon="5.63851">
        <ele>272.60000610352</ele>
        <time>2013-01-12T08:40:24.000Z</time>
      </trkpt>
      <trkpt lat="43.63718" lon="5.63919">
        <ele>273.20001220703</ele>
        <time>2013-01-12T08:40:40.000Z</time>
      </trkpt>
      <trkpt lat="43.63723" lon="5.63984">
        <ele>274</ele>
        <time>2013-01-12T08:40:53.000Z</time>
      </trkpt>
      <trkpt lat="43.63723" lon="5.64049">
        <ele>273.79998779297</ele>
        <time>2013-01-12T08:41:09.000Z</time>
      </trkpt>
      <trkpt lat="43.63719" lon="5.64117">
        <ele>273.39999389648</ele>
        <time>2013-01-12T08:41:24.000Z</time>
      </trkpt>
      <trkpt lat="43.63705" lon="5.64181">
        <ele>272</ele>
        <time>2013-01-12T08:41:37.000Z</time>
      </trkpt>
      <trkpt lat="43.6369" lon="5.64246">
        <ele>270</ele>
        <time>2013-01-12T08:41:49.000Z</time>
      </trkpt>
      <trkpt lat="43.63694" lon="5.64294">
        <ele>271</ele>
        <time>2013-01-12T08:42:09.000Z</time>
      </trkpt>
      <trkpt lat="43.63704" lon="5.64349">
        <ele>273.79998779297</ele>
        <time>2013-01-12T08:42:26.000Z</time>
      </trkpt>
      <trkpt lat="43.63688" lon="5.64409">
        <ele>274</ele>
        <time>2013-01-12T08:42:40.000Z</time>
      </trkpt>
      <trkpt lat="43.63645" lon="5.6444">
        <ele>276</ele>
        <time>2013-01-12T08:42:53.000Z</time>
      </trkpt>
      <trkpt lat="43.63607" lon="5.64473">
        <ele>277.60000610352</ele>
        <time>2013-01-12T08:43:09.000Z</time>
      </trkpt>
      <trkpt lat="43.63586" lon="5.64532">
        <ele>280.60000610352</ele>
        <time>2013-01-12T08:43:37.000Z</time>
      </trkpt>
      <trkpt lat="43.63561" lon="5.64589">
        <ele>285</ele>
        <time>2013-01-12T08:43:46.000Z</time>
      </trkpt>
      <trkpt lat="43.63556" lon="5.64656">
        <ele>285.39999389648</ele>
        <time>2013-01-12T08:43:55.000Z</time>
      </trkpt>
      <trkpt lat="43.63565" lon="5.64722">
        <ele>286</ele>
        <time>2013-01-12T08:44:05.000Z</time>
      </trkpt>
      <trkpt lat="43.63573" lon="5.64783">
        <ele>285.60000610352</ele>
        <time>2013-01-12T08:44:16.000Z</time>
      </trkpt>
      <trkpt lat="43.63577" lon="5.64849">
        <ele>285.20001220703</ele>
        <time>2013-01-12T08:44:28.000Z</time>
      </trkpt>
      <trkpt lat="43.63602" lon="5.64897">
        <ele>286.20001220703</ele>
        <time>2013-01-12T08:44:41.000Z</time>
      </trkpt>
      <trkpt lat="43.63638" lon="5.64929">
        <ele>290.79998779297</ele>
        <time>2013-01-12T08:44:53.000Z</time>
      </trkpt>
      <trkpt lat="43.63647" lon="5.64992">
        <ele>288.79998779297</ele>
        <time>2013-01-12T08:45:08.000Z</time>
      </trkpt>
      <trkpt lat="43.63682" lon="5.65028">
        <ele>291.20001220703</ele>
        <time>2013-01-12T08:45:22.000Z</time>
      </trkpt>
      <trkpt lat="43.63705" lon="5.65078">
        <ele>296.60000610352</ele>
        <time>2013-01-12T08:45:34.000Z</time>
      </trkpt>
      <trkpt lat="43.63708" lon="5.65142">
        <ele>302</ele>
        <time>2013-01-12T08:45:47.000Z</time>
      </trkpt>
      <trkpt lat="43.63701" lon="5.65206">
        <ele>300.79998779297</ele>
        <time>2013-01-12T08:46:00.000Z</time>
      </trkpt>
      <trkpt lat="43.63712" lon="5.65269">
        <ele>299.60000610352</ele>
        <time>2013-01-12T08:46:13.000Z</time>
      </trkpt>
      <trkpt lat="43.63751" lon="5.65302">
        <ele>299.39999389648</ele>
        <time>2013-01-12T08:46:29.000Z</time>
      </trkpt>
      <trkpt lat="43.63765" lon="5.65361">
        <ele>301.39999389648</ele>
        <time>2013-01-12T08:46:44.000Z</time>
      </trkpt>
      <trkpt lat="43.63777" lon="5.65425">
        <ele>303</ele>
        <time>2013-01-12T08:46:59.000Z</time>
      </trkpt>
      <trkpt lat="43.63745" lon="5.65469">
        <ele>306.60000610352</ele>
        <time>2013-01-12T08:47:18.000Z</time>
      </trkpt>
      <trkpt lat="43.63714" lon="5.65514">
        <ele>306.79998779297</ele>
        <time>2013-01-12T08:47:38.000Z</time>
      </trkpt>
      <trkpt lat="43.63736" lon="5.65568">
        <ele>307.60000610352</ele>
        <time>2013-01-12T08:47:54.000Z</time>
      </trkpt>
      <trkpt lat="43.63754" lon="5.65629">
        <ele>307</ele>
        <time>2013-01-12T08:48:03.000Z</time>
      </trkpt>
      <trkpt lat="43.63789" lon="5.65668">
        <ele>309</ele>
        <time>2013-01-12T08:48:13.000Z</time>
      </trkpt>
      <trkpt lat="43.63823" lon="5.65712">
        <ele>309.20001220703</ele>
        <time>2013-01-12T08:48:25.000Z</time>
      </trkpt>
      <trkpt lat="43.6384" lon="5.65776">
        <ele>307.60000610352</ele>
        <time>2013-01-12T08:48:38.000Z</time>
      </trkpt>
      <trkpt lat="43.63851" lon="5.65839">
        <ele>310.20001220703</ele>
        <time>2013-01-12T08:48:50.000Z</time>
      </trkpt>
      <trkpt lat="43.63827" lon="5.65894">
        <ele>308.79998779297</ele>
        <time>2013-01-12T08:49:02.000Z</time>
      </trkpt>
      <trkpt lat="43.63844" lon="5.65953">
        <ele>307.79998779297</ele>
        <time>2013-01-12T08:49:13.000Z</time>
      </trkpt>
      <trkpt lat="43.63882" lon="5.65995">
        <ele>305.60000610352</ele>
        <time>2013-01-12T08:49:24.000Z</time>
      </trkpt>
      <trkpt lat="43.63917" lon="5.66041">
        <ele>305</ele>
        <time>2013-01-12T08:49:35.000Z</time>
      </trkpt>
      <trkpt lat="43.63947" lon="5.66088">
        <ele>307.60000610352</ele>
        <time>2013-01-12T08:49:46.000Z</time>
      </trkpt>
      <trkpt lat="43.63973" lon="5.66144">
        <ele>309.79998779297</ele>
        <time>2013-01-12T08:49:56.000Z</time>
      </trkpt>
      <trkpt lat="43.64" lon="5.662">
        <ele>310.60000610352</ele>
        <time>2013-01-12T08:50:08.000Z</time>
      </trkpt>
      <trkpt lat="43.64016" lon="5.66265">
        <ele>311</ele>
        <time>2013-01-12T08:50:22.000Z</time>
      </trkpt>
      <trkpt lat="43.64033" lon="5.66328">
        <ele>312.60000610352</ele>
        <time>2013-01-12T08:50:35.000Z</time>
      </trkpt>
      <trkpt lat="43.64058" lon="5.66385">
        <ele>315.20001220703</ele>
        <time>2013-01-12T08:50:49.000Z</time>
      </trkpt>
      <trkpt lat="43.64085" lon="5.66438">
        <ele>316.39999389648</ele>
        <time>2013-01-12T08:51:03.000Z</time>
      </trkpt>
      <trkpt lat="43.64114" lon="5.66485">
        <ele>319.79998779297</ele>
        <time>2013-01-12T08:51:17.000Z</time>
      </trkpt>
      <trkpt lat="43.64144" lon="5.66537">
        <ele>325.60000610352</ele>
        <time>2013-01-12T08:51:31.000Z</time>
      </trkpt>
      <trkpt lat="43.64159" lon="5.66599">
        <ele>329.20001220703</ele>
        <time>2013-01-12T08:51:45.000Z</time>
      </trkpt>
      <trkpt lat="43.64184" lon="5.66659">
        <ele>331.39999389648</ele>
        <time>2013-01-12T08:52:02.000Z</time>
      </trkpt>
      <trkpt lat="43.64216" lon="5.66711">
        <ele>333.20001220703</ele>
        <time>2013-01-12T08:52:22.000Z</time>
      </trkpt>
      <trkpt lat="43.64254" lon="5.66752">
        <ele>333.39999389648</ele>
        <time>2013-01-12T08:52:41.000Z</time>
      </trkpt>
      <trkpt lat="43.64295" lon="5.66781">
        <ele>339.39999389648</ele>
        <time>2013-01-12T08:52:58.000Z</time>
      </trkpt>
      <trkpt lat="43.64328" lon="5.66828">
        <ele>341.39999389648</ele>
        <time>2013-01-12T08:53:17.000Z</time>
      </trkpt>
      <trkpt lat="43.64361" lon="5.66875">
        <ele>346.39999389648</ele>
        <time>2013-01-12T08:53:36.000Z</time>
      </trkpt>
      <trkpt lat="43.64391" lon="5.66923">
        <ele>349.60000610352</ele>
        <time>2013-01-12T08:53:54.000Z</time>
      </trkpt>
      <trkpt lat="43.64415" lon="5.66979">
        <ele>350</ele>
        <time>2013-01-12T08:54:15.000Z</time>
      </trkpt>
      <trkpt lat="43.64438" lon="5.67039">
        <ele>355</ele>
        <time>2013-01-12T08:54:35.000Z</time>
      </trkpt>
      <trkpt lat="43.64444" lon="5.67104">
        <ele>359</ele>
        <time>2013-01-12T08:54:56.000Z</time>
      </trkpt>
      <trkpt lat="43.64445" lon="5.67171">
        <ele>362.79998779297</ele>
        <time>2013-01-12T08:55:21.000Z</time>
      </trkpt>
      <trkpt lat="43.64435" lon="5.67238">
        <ele>365.60000610352</ele>
        <time>2013-01-12T08:55:48.000Z</time>
      </trkpt>
      <trkpt lat="43.64421" lon="5.6731">
        <ele>369.39999389648</ele>
        <time>2013-01-12T08:56:19.000Z</time>
      </trkpt>
      <trkpt lat="43.6442" lon="5.67354">
        <ele>374.79998779297</ele>
        <time>2013-01-12T08:56:52.000Z</time>
      </trkpt>
      <trkpt lat="43.64428" lon="5.67379">
        <ele>379.60000610352</ele>
        <time>2013-01-12T08:57:29.000Z</time>
      </trkpt>
      <trkpt lat="43.64421" lon="5.67437">
        <ele>386.79998779297</ele>
        <time>2013-01-12T08:58:05.000Z</time>
      </trkpt>
      <trkpt lat="43.64442" lon="5.67466">
        <ele>390.20001220703</ele>
        <time>2013-01-12T08:58:41.000Z</time>
      </trkpt>
      <trkpt lat="43.64446" lon="5.67522">
        <ele>394</ele>
        <time>2013-01-12T09:00:17.000Z</time>
      </trkpt>
      <trkpt lat="43.64447" lon="5.67581">
        <ele>397.20001220703</ele>
        <time>2013-01-12T09:00:37.000Z</time>
      </trkpt>
      <trkpt lat="43.64436" lon="5.67639">
        <ele>400</ele>
        <time>2013-01-12T09:00:50.000Z</time>
      </trkpt>
      <trkpt lat="43.64412" lon="5.67694">
        <ele>402.39999389648</ele>
        <time>2013-01-12T09:01:06.000Z</time>
      </trkpt>
      <trkpt lat="43.64388" lon="5.6775">
        <ele>403.20001220703</ele>
        <time>2013-01-12T09:01:24.000Z</time>
      </trkpt>
      <trkpt lat="43.64354" lon="5.67797">
        <ele>403.60000610352</ele>
        <time>2013-01-12T09:01:39.000Z</time>
      </trkpt>
      <trkpt lat="43.64319" lon="5.67838">
        <ele>405</ele>
        <time>2013-01-12T09:01:55.000Z</time>
      </trkpt>
      <trkpt lat="43.64278" lon="5.67863">
        <ele>406.20001220703</ele>
        <time>2013-01-12T09:02:11.000Z</time>
      </trkpt>
      <trkpt lat="43.64237" lon="5.67895">
        <ele>407.20001220703</ele>
        <time>2013-01-12T09:02:26.000Z</time>
      </trkpt>
      <trkpt lat="43.64194" lon="5.67921">
        <ele>407</ele>
        <time>2013-01-12T09:02:38.000Z</time>
      </trkpt>
      <trkpt lat="43.6415" lon="5.67949">
        <ele>407.39999389648</ele>
        <time>2013-01-12T09:02:50.000Z</time>
      </trkpt>
      <trkpt lat="43.64108" lon="5.6798">
        <ele>407.79998779297</ele>
        <time>2013-01-12T09:03:03.000Z</time>
      </trkpt>
      <trkpt lat="43.6408" lon="5.6803">
        <ele>408.39999389648</ele>
        <time>2013-01-12T09:03:18.000Z</time>
      </trkpt>
      <trkpt lat="43.64048" lon="5.68075">
        <ele>408</ele>
        <time>2013-01-12T09:03:31.000Z</time>
      </trkpt>
      <trkpt lat="43.64004" lon="5.68092">
        <ele>405.60000610352</ele>
        <time>2013-01-12T09:03:44.000Z</time>
      </trkpt>
      <trkpt lat="43.63957" lon="5.68076">
        <ele>403.79998779297</ele>
        <time>2013-01-12T09:03:57.000Z</time>
      </trkpt>
      <trkpt lat="43.63911" lon="5.68053">
        <ele>402.20001220703</ele>
        <time>2013-01-12T09:04:09.000Z</time>
      </trkpt>
      <trkpt lat="43.63867" lon="5.68032">
        <ele>400.60000610352</ele>
        <time>2013-01-12T09:04:17.000Z</time>
      </trkpt>
      <trkpt lat="43.63821" lon="5.68004">
        <ele>400.39999389648</ele>
        <time>2013-01-12T09:04:25.000Z</time>
      </trkpt>
      <trkpt lat="43.63777" lon="5.67973">
        <ele>398.20001220703</ele>
        <time>2013-01-12T09:04:33.000Z</time>
      </trkpt>
      <trkpt lat="43.63735" lon="5.67941">
        <ele>395.79998779297</ele>
        <time>2013-01-12T09:04:42.000Z</time>
      </trkpt>
      <trkpt lat="43.63691" lon="5.67927">
        <ele>389.79998779297</ele>
        <time>2013-01-12T09:04:51.000Z</time>
      </trkpt>
      <trkpt lat="43.63689" lon="5.67979">
        <ele>384.39999389648</ele>
        <time>2013-01-12T09:05:03.000Z</time>
      </trkpt>
      <trkpt lat="43.63694" lon="5.68044">
        <ele>380.60000610352</ele>
        <time>2013-01-12T09:05:12.000Z</time>
      </trkpt>
      <trkpt lat="43.63693" lon="5.68113">
        <ele>378</ele>
        <time>2013-01-12T09:05:19.000Z</time>
      </trkpt>
      <trkpt lat="43.63668" lon="5.68145">
        <ele>376.39999389648</ele>
        <time>2013-01-12T09:05:31.000Z</time>
      </trkpt>
      <trkpt lat="43.63626" lon="5.68116">
        <ele>378.39999389648</ele>
        <time>2013-01-12T09:05:42.000Z</time>
      </trkpt>
      <trkpt lat="43.63586" lon="5.68086">
        <ele>378</ele>
        <time>2013-01-12T09:05:57.000Z</time>
      </trkpt>
      <trkpt lat="43.63546" lon="5.68047">
        <ele>376.79998779297</ele>
        <time>2013-01-12T09:06:10.000Z</time>
      </trkpt>
      <trkpt lat="43.63505" lon="5.68015">
        <ele>378.20001220703</ele>
        <time>2013-01-12T09:06:24.000Z</time>
      </trkpt>
      <trkpt lat="43.63464" lon="5.67998">
        <ele>374.60000610352</ele>
        <time>2013-01-12T09:06:42.000Z</time>
      </trkpt>
      <trkpt lat="43.63443" lon="5.68051">
        <ele>374.39999389648</ele>
        <time>2013-01-12T09:06:56.000Z</time>
      </trkpt>
      <trkpt lat="43.63412" lon="5.68091">
        <ele>372.60000610352</ele>
        <time>2013-01-12T09:07:08.000Z</time>
      </trkpt>
      <trkpt lat="43.63372" lon="5.68056">
        <ele>375.39999389648</ele>
        <time>2013-01-12T09:07:22.000Z</time>
      </trkpt>
      <trkpt lat="43.63352" lon="5.67999">
        <ele>377.20001220703</ele>
        <time>2013-01-12T09:07:39.000Z</time>
      </trkpt>
      <trkpt lat="43.63313" lon="5.67962">
        <ele>378.79998779297</ele>
        <time>2013-01-12T09:08:02.000Z</time>
      </trkpt>
      <trkpt lat="43.63265" lon="5.67949">
        <ele>381.60000610352</ele>
        <time>2013-01-12T09:08:26.000Z</time>
      </trkpt>
      <trkpt lat="43.63256" lon="5.68003">
        <ele>383.60000610352</ele>
        <time>2013-01-12T09:08:44.000Z</time>
      </trkpt>
      <trkpt lat="43.63265" lon="5.6807">
        <ele>383.60000610352</ele>
        <time>2013-01-12T09:08:59.000Z</time>
      </trkpt>
      <trkpt lat="43.63268" lon="5.68137">
        <ele>383.60000610352</ele>
        <time>2013-01-12T09:09:13.000Z</time>
      </trkpt>
      <trkpt lat="43.63285" lon="5.68197">
        <ele>383.20001220703</ele>
        <time>2013-01-12T09:09:28.000Z</time>
      </trkpt>
      <trkpt lat="43.6331" lon="5.68248">
        <ele>384.79998779297</ele>
        <time>2013-01-12T09:09:45.000Z</time>
      </trkpt>
      <trkpt lat="43.63326" lon="5.68307">
        <ele>388</ele>
        <time>2013-01-12T09:10:03.000Z</time>
      </trkpt>
      <trkpt lat="43.63344" lon="5.68368">
        <ele>391</ele>
        <time>2013-01-12T09:10:24.000Z</time>
      </trkpt>
      <trkpt lat="43.63379" lon="5.6841">
        <ele>392</ele>
        <time>2013-01-12T09:10:43.000Z</time>
      </trkpt>
      <trkpt lat="43.63413" lon="5.68455">
        <ele>392.79998779297</ele>
        <time>2013-01-12T09:11:06.000Z</time>
      </trkpt>
      <trkpt lat="43.63424" lon="5.68519">
        <ele>394</ele>
        <time>2013-01-12T09:11:28.000Z</time>
      </trkpt>
      <trkpt lat="43.63456" lon="5.68568">
        <ele>393.60000610352</ele>
        <time>2013-01-12T09:11:50.000Z</time>
      </trkpt>
      <trkpt lat="43.63495" lon="5.68605">
        <ele>392.60000610352</ele>
        <time>2013-01-12T09:12:11.000Z</time>
      </trkpt>
      <trkpt lat="43.63493" lon="5.68658">
        <ele>393.60000610352</ele>
        <time>2013-01-12T09:12:32.000Z</time>
      </trkpt>
      <trkpt lat="43.63507" lon="5.68721">
        <ele>395.60000610352</ele>
        <time>2013-01-12T09:12:52.000Z</time>
      </trkpt>
      <trkpt lat="43.6352" lon="5.68784">
        <ele>397.39999389648</ele>
        <time>2013-01-12T09:13:11.000Z</time>
      </trkpt>
      <trkpt lat="43.63533" lon="5.68847">
        <ele>399.60000610352</ele>
        <time>2013-01-12T09:13:29.000Z</time>
      </trkpt>
      <trkpt lat="43.63541" lon="5.68916">
        <ele>400.79998779297</ele>
        <time>2013-01-12T09:13:47.000Z</time>
      </trkpt>
      <trkpt lat="43.63537" lon="5.68985">
        <ele>398.39999389648</ele>
        <time>2013-01-12T09:14:03.000Z</time>
      </trkpt>
      <trkpt lat="43.63568" lon="5.69032">
        <ele>401.60000610352</ele>
        <time>2013-01-12T09:14:19.000Z</time>
      </trkpt>
      <trkpt lat="43.636" lon="5.69082">
        <ele>404</ele>
        <time>2013-01-12T09:14:33.000Z</time>
      </trkpt>
      <trkpt lat="43.6362" lon="5.69147">
        <ele>403.60000610352</ele>
        <time>2013-01-12T09:14:47.000Z</time>
      </trkpt>
      <trkpt lat="43.63635" lon="5.69202">
        <ele>403.79998779297</ele>
        <time>2013-01-12T09:15:01.000Z</time>
      </trkpt>
      <trkpt lat="43.63633" lon="5.69267">
        <ele>400.60000610352</ele>
        <time>2013-01-12T09:15:14.000Z</time>
      </trkpt>
      <trkpt lat="43.63643" lon="5.69332">
        <ele>401.79998779297</ele>
        <time>2013-01-12T09:15:28.000Z</time>
      </trkpt>
      <trkpt lat="43.63663" lon="5.69392">
        <ele>403.79998779297</ele>
        <time>2013-01-12T09:15:42.000Z</time>
      </trkpt>
      <trkpt lat="43.63656" lon="5.69452">
        <ele>402</ele>
        <time>2013-01-12T09:15:56.000Z</time>
      </trkpt>
      <trkpt lat="43.63658" lon="5.6952">
        <ele>402.20001220703</ele>
        <time>2013-01-12T09:16:08.000Z</time>
      </trkpt>
      <trkpt lat="43.6364" lon="5.69576">
        <ele>404.20001220703</ele>
        <time>2013-01-12T09:16:25.000Z</time>
      </trkpt>
      <trkpt lat="43.63676" lon="5.69609">
        <ele>407.79998779297</ele>
        <time>2013-01-12T09:16:50.000Z</time>
      </trkpt>
      <trkpt lat="43.63665" lon="5.69672">
        <ele>413.39999389648</ele>
        <time>2013-01-12T09:17:16.000Z</time>
      </trkpt>
      <trkpt lat="43.63642" lon="5.69731">
        <ele>419.79998779297</ele>
        <time>2013-01-12T09:17:42.000Z</time>
      </trkpt>
      <trkpt lat="43.63646" lon="5.69799">
        <ele>427</ele>
        <time>2013-01-12T09:18:12.000Z</time>
      </trkpt>
      <trkpt lat="43.63665" lon="5.69862">
        <ele>432</ele>
        <time>2013-01-12T09:18:41.000Z</time>
      </trkpt>
      <trkpt lat="43.63689" lon="5.69929">
        <ele>443.39999389648</ele>
        <time>2013-01-12T09:19:18.000Z</time>
      </trkpt>
      <trkpt lat="43.63712" lon="5.69988">
        <ele>454.39999389648</ele>
        <time>2013-01-12T09:19:56.000Z</time>
      </trkpt>
      <trkpt lat="43.63693" lon="5.70047">
        <ele>466.39999389648</ele>
        <time>2013-01-12T09:21:14.000Z</time>
      </trkpt>
      <trkpt lat="43.6368" lon="5.70091">
        <ele>474.39999389648</ele>
        <time>2013-01-12T09:23:32.000Z</time>
      </trkpt>
      <trkpt lat="43.63673" lon="5.7013">
        <ele>478.79998779297</ele>
        <time>2013-01-12T09:25:22.000Z</time>
      </trkpt>
      <trkpt lat="43.63651" lon="5.70179">
        <ele>481.60000610352</ele>
        <time>2013-01-12T09:25:47.000Z</time>
      </trkpt>
      <trkpt lat="43.63607" lon="5.70203">
        <ele>476.60000610352</ele>
        <time>2013-01-12T09:25:58.000Z</time>
      </trkpt>
      <trkpt lat="43.63561" lon="5.70225">
        <ele>469.20001220703</ele>
        <time>2013-01-12T09:26:09.000Z</time>
      </trkpt>
      <trkpt lat="43.63527" lon="5.70275">
        <ele>466.20001220703</ele>
        <time>2013-01-12T09:26:18.000Z</time>
      </trkpt>
      <trkpt lat="43.6348" lon="5.70288">
        <ele>459.60000610352</ele>
        <time>2013-01-12T09:26:25.000Z</time>
      </trkpt>
      <trkpt lat="43.63434" lon="5.70281">
        <ele>453.60000610352</ele>
        <time>2013-01-12T09:26:33.000Z</time>
      </trkpt>
      <trkpt lat="43.63389" lon="5.70265">
        <ele>446</ele>
        <time>2013-01-12T09:26:41.000Z</time>
      </trkpt>
      <trkpt lat="43.63348" lon="5.70244">
        <ele>439.79998779297</ele>
        <time>2013-01-12T09:26:48.000Z</time>
      </trkpt>
      <trkpt lat="43.63313" lon="5.70196">
        <ele>435.60000610352</ele>
        <time>2013-01-12T09:26:55.000Z</time>
      </trkpt>
      <trkpt lat="43.63275" lon="5.70158">
        <ele>431.79998779297</ele>
        <time>2013-01-12T09:27:01.000Z</time>
      </trkpt>
      <trkpt lat="43.63236" lon="5.70123">
        <ele>424.79998779297</ele>
        <time>2013-01-12T09:27:07.000Z</time>
      </trkpt>
      <trkpt lat="43.63197" lon="5.70082">
        <ele>418.39999389648</ele>
        <time>2013-01-12T09:27:13.000Z</time>
      </trkpt>
      <trkpt lat="43.63153" lon="5.70108">
        <ele>413.39999389648</ele>
        <time>2013-01-12T09:27:19.000Z</time>
      </trkpt>
      <trkpt lat="43.63106" lon="5.70125">
        <ele>404</ele>
        <time>2013-01-12T09:27:25.000Z</time>
      </trkpt>
      <trkpt lat="43.63059" lon="5.70105">
        <ele>395.60000610352</ele>
        <time>2013-01-12T09:27:32.000Z</time>
      </trkpt>
      <trkpt lat="43.63033" lon="5.70141">
        <ele>392.20001220703</ele>
        <time>2013-01-12T09:27:46.000Z</time>
      </trkpt>
      <trkpt lat="43.63035" lon="5.70212">
        <ele>389.79998779297</ele>
        <time>2013-01-12T09:28:01.000Z</time>
      </trkpt>
      <trkpt lat="43.6301" lon="5.70279">
        <ele>382.60000610352</ele>
        <time>2013-01-12T09:28:07.000Z</time>
      </trkpt>
      <trkpt lat="43.62981" lon="5.70314">
        <ele>377.79998779297</ele>
        <time>2013-01-12T09:28:16.000Z</time>
      </trkpt>
      <trkpt lat="43.62937" lon="5.70298">
        <ele>373</ele>
        <time>2013-01-12T09:28:32.000Z</time>
      </trkpt>
      <trkpt lat="43.62899" lon="5.70295">
        <ele>368.79998779297</ele>
        <time>2013-01-12T09:33:34.000Z</time>
      </trkpt>
      <trkpt lat="43.62859" lon="5.70275">
        <ele>365.20001220703</ele>
        <time>2013-01-12T09:33:44.000Z</time>
      </trkpt>
      <trkpt lat="43.62865" lon="5.70209">
        <ele>365.79998779297</ele>
        <time>2013-01-12T09:33:57.000Z</time>
      </trkpt>
      <trkpt lat="43.62824" lon="5.70199">
        <ele>362.20001220703</ele>
        <time>2013-01-12T09:34:06.000Z</time>
      </trkpt>
      <trkpt lat="43.62823" lon="5.70132">
        <ele>362.39999389648</ele>
        <time>2013-01-12T09:34:16.000Z</time>
      </trkpt>
      <trkpt lat="43.62787" lon="5.70121">
        <ele>361.39999389648</ele>
        <time>2013-01-12T09:34:25.000Z</time>
      </trkpt>
      <trkpt lat="43.6275" lon="5.70147">
        <ele>358.39999389648</ele>
        <time>2013-01-12T09:34:37.000Z</time>
      </trkpt>
      <trkpt lat="43.62743" lon="5.70211">
        <ele>356.20001220703</ele>
        <time>2013-01-12T09:34:55.000Z</time>
      </trkpt>
      <trkpt lat="43.62741" lon="5.70278">
        <ele>356.20001220703</ele>
        <time>2013-01-12T09:35:17.000Z</time>
      </trkpt>
      <trkpt lat="43.62736" lon="5.70345">
        <ele>357.20001220703</ele>
        <time>2013-01-12T09:35:41.000Z</time>
      </trkpt>
      <trkpt lat="43.62739" lon="5.70408">
        <ele>357.39999389648</ele>
        <time>2013-01-12T09:35:54.000Z</time>
      </trkpt>
      <trkpt lat="43.62737" lon="5.70474">
        <ele>362.79998779297</ele>
        <time>2013-01-12T09:36:10.000Z</time>
      </trkpt>
      <trkpt lat="43.62727" lon="5.70533">
        <ele>367</ele>
        <time>2013-01-12T09:36:45.000Z</time>
      </trkpt>
      <trkpt lat="43.62707" lon="5.70604">
        <ele>368</ele>
        <time>2013-01-12T09:37:36.000Z</time>
      </trkpt>
      <trkpt lat="43.62692" lon="5.70671">
        <ele>366.20001220703</ele>
        <time>2013-01-12T09:37:58.000Z</time>
      </trkpt>
      <trkpt lat="43.62672" lon="5.70734">
        <ele>363.39999389648</ele>
        <time>2013-01-12T09:38:31.000Z</time>
      </trkpt>
      <trkpt lat="43.62651" lon="5.70794">
        <ele>360.60000610352</ele>
        <time>2013-01-12T09:39:20.000Z</time>
      </trkpt>
      <trkpt lat="43.62629" lon="5.7085">
        <ele>358.20001220703</ele>
        <time>2013-01-12T09:40:00.000Z</time>
      </trkpt>
      <trkpt lat="43.6261" lon="5.70911">
        <ele>353.79998779297</ele>
        <time>2013-01-12T09:40:15.000Z</time>
      </trkpt>
      <trkpt lat="43.62592" lon="5.7097">
        <ele>351.79998779297</ele>
        <time>2013-01-12T09:40:27.000Z</time>
      </trkpt>
      <trkpt lat="43.62591" lon="5.71032">
        <ele>350.79998779297</ele>
        <time>2013-01-12T09:40:41.000Z</time>
      </trkpt>
      <trkpt lat="43.62592" lon="5.71097">
        <ele>351</ele>
        <time>2013-01-12T09:40:56.000Z</time>
      </trkpt>
      <trkpt lat="43.62593" lon="5.7116">
        <ele>354.20001220703</ele>
        <time>2013-01-12T09:41:11.000Z</time>
      </trkpt>
      <trkpt lat="43.62587" lon="5.71223">
        <ele>357.60000610352</ele>
        <time>2013-01-12T09:41:27.000Z</time>
      </trkpt>
      <trkpt lat="43.62571" lon="5.71283">
        <ele>361.39999389648</ele>
        <time>2013-01-12T09:41:40.000Z</time>
      </trkpt>
      <trkpt lat="43.62548" lon="5.71342">
        <ele>364.39999389648</ele>
        <time>2013-01-12T09:41:58.000Z</time>
      </trkpt>
      <trkpt lat="43.62555" lon="5.71405">
        <ele>363.20001220703</ele>
        <time>2013-01-12T09:42:18.000Z</time>
      </trkpt>
      <trkpt lat="43.62561" lon="5.71471">
        <ele>364</ele>
        <time>2013-01-12T09:42:33.000Z</time>
      </trkpt>
      <trkpt lat="43.62564" lon="5.71535">
        <ele>365.39999389648</ele>
        <time>2013-01-12T09:42:48.000Z</time>
      </trkpt>
      <trkpt lat="43.62563" lon="5.716">
        <ele>366.39999389648</ele>
        <time>2013-01-12T09:43:04.000Z</time>
      </trkpt>
      <trkpt lat="43.62562" lon="5.71664">
        <ele>365.79998779297</ele>
        <time>2013-01-12T09:43:17.000Z</time>
      </trkpt>
      <trkpt lat="43.62559" lon="5.71731">
        <ele>365.79998779297</ele>
        <time>2013-01-12T09:43:30.000Z</time>
      </trkpt>
      <trkpt lat="43.62558" lon="5.71795">
        <ele>368.39999389648</ele>
        <time>2013-01-12T09:43:42.000Z</time>
      </trkpt>
      <trkpt lat="43.62555" lon="5.71858">
        <ele>370.60000610352</ele>
        <time>2013-01-12T09:43:54.000Z</time>
      </trkpt>
      <trkpt lat="43.62551" lon="5.71924">
        <ele>371.60000610352</ele>
        <time>2013-01-12T09:44:07.000Z</time>
      </trkpt>
      <trkpt lat="43.62554" lon="5.71987">
        <ele>372.39999389648</ele>
        <time>2013-01-12T09:44:35.000Z</time>
      </trkpt>
      <trkpt lat="43.62554" lon="5.72002">
        <ele>372.60000610352</ele>
        <time>2013-01-12T09:45:52.000Z</time>
      </trkpt>
      <trkpt lat="43.62553" lon="5.71938">
        <ele>371.79998779297</ele>
        <time>2013-01-12T09:46:04.000Z</time>
      </trkpt>
      <trkpt lat="43.62595" lon="5.71955">
        <ele>375.20001220703</ele>
        <time>2013-01-12T09:46:24.000Z</time>
      </trkpt>
      <trkpt lat="43.62641" lon="5.71972">
        <ele>380.20001220703</ele>
        <time>2013-01-12T09:46:50.000Z</time>
      </trkpt>
      <trkpt lat="43.62686" lon="5.7199">
        <ele>387</ele>
        <time>2013-01-12T09:47:15.000Z</time>
      </trkpt>
      <trkpt lat="43.62699" lon="5.71993">
        <ele>390</ele>
        <time>2013-01-12T09:49:40.000Z</time>
      </trkpt>
      <trkpt lat="43.62655" lon="5.71978">
        <ele>381.60000610352</ele>
        <time>2013-01-12T09:49:51.000Z</time>
      </trkpt>
      <trkpt lat="43.62606" lon="5.71961">
        <ele>376.39999389648</ele>
        <time>2013-01-12T09:50:01.000Z</time>
      </trkpt>
      <trkpt lat="43.62562" lon="5.71937">
        <ele>372.39999389648</ele>
        <time>2013-01-12T09:50:10.000Z</time>
      </trkpt>
      <trkpt lat="43.62554" lon="5.71987">
        <ele>372.39999389648</ele>
        <time>2013-01-12T09:50:27.000Z</time>
      </trkpt>
      <trkpt lat="43.62555" lon="5.72053">
        <ele>373.39999389648</ele>
        <time>2013-01-12T09:50:41.000Z</time>
      </trkpt>
      <trkpt lat="43.62547" lon="5.72122">
        <ele>375</ele>
        <time>2013-01-12T09:50:51.000Z</time>
      </trkpt>
      <trkpt lat="43.62534" lon="5.72186">
        <ele>376.79998779297</ele>
        <time>2013-01-12T09:51:30.000Z</time>
      </trkpt>
      <trkpt lat="43.62523" lon="5.72248">
        <ele>380</ele>
        <time>2013-01-12T09:51:42.000Z</time>
      </trkpt>
      <trkpt lat="43.6251" lon="5.72312">
        <ele>384.60000610352</ele>
        <time>2013-01-12T09:51:58.000Z</time>
      </trkpt>
      <trkpt lat="43.62492" lon="5.72377">
        <ele>388.60000610352</ele>
        <time>2013-01-12T09:52:17.000Z</time>
      </trkpt>
      <trkpt lat="43.62484" lon="5.72441">
        <ele>391</ele>
        <time>2013-01-12T09:52:35.000Z</time>
      </trkpt>
      <trkpt lat="43.62463" lon="5.72503">
        <ele>390.60000610352</ele>
        <time>2013-01-12T09:52:54.000Z</time>
      </trkpt>
      <trkpt lat="43.62446" lon="5.7256">
        <ele>392</ele>
        <time>2013-01-12T09:53:10.000Z</time>
      </trkpt>
      <trkpt lat="43.62436" lon="5.72624">
        <ele>392.39999389648</ele>
        <time>2013-01-12T09:53:24.000Z</time>
      </trkpt>
      <trkpt lat="43.6243" lon="5.72688">
        <ele>392.39999389648</ele>
        <time>2013-01-12T09:53:35.000Z</time>
      </trkpt>
      <trkpt lat="43.62413" lon="5.72753">
        <ele>390.60000610352</ele>
        <time>2013-01-12T09:54:24.000Z</time>
      </trkpt>
      <trkpt lat="43.62408" lon="5.72822">
        <ele>388.39999389648</ele>
        <time>2013-01-12T09:54:36.000Z</time>
      </trkpt>
      <trkpt lat="43.62404" lon="5.72888">
        <ele>386.79998779297</ele>
        <time>2013-01-12T09:56:06.000Z</time>
      </trkpt>
      <trkpt lat="43.62402" lon="5.72953">
        <ele>385.60000610352</ele>
        <time>2013-01-12T09:56:18.000Z</time>
      </trkpt>
      <trkpt lat="43.62389" lon="5.73014">
        <ele>384.39999389648</ele>
        <time>2013-01-12T09:56:27.000Z</time>
      </trkpt>
      <trkpt lat="43.62371" lon="5.73076">
        <ele>384.20001220703</ele>
        <time>2013-01-12T09:56:36.000Z</time>
      </trkpt>
      <trkpt lat="43.62349" lon="5.7313">
        <ele>383.20001220703</ele>
        <time>2013-01-12T09:56:46.000Z</time>
      </trkpt>
      <trkpt lat="43.62328" lon="5.73188">
        <ele>381.60000610352</ele>
        <time>2013-01-12T09:56:55.000Z</time>
      </trkpt>
      <trkpt lat="43.62368" lon="5.73207">
        <ele>388.20001220703</ele>
        <time>2013-01-12T10:00:09.000Z</time>
      </trkpt>
      <trkpt lat="43.62403" lon="5.7316">
        <ele>391.60000610352</ele>
        <time>2013-01-12T10:00:31.000Z</time>
      </trkpt>
      <trkpt lat="43.62431" lon="5.73104">
        <ele>394</ele>
        <time>2013-01-12T10:00:54.000Z</time>
      </trkpt>
      <trkpt lat="43.6248" lon="5.73099">
        <ele>404.60000610352</ele>
        <time>2013-01-12T10:01:23.000Z</time>
      </trkpt>
      <trkpt lat="43.62496" lon="5.73079">
        <ele>408</ele>
        <time>2013-01-12T10:02:14.000Z</time>
      </trkpt>
      <trkpt lat="43.62455" lon="5.73101">
        <ele>399.20001220703</ele>
        <time>2013-01-12T10:02:29.000Z</time>
      </trkpt>
      <trkpt lat="43.62411" lon="5.73122">
        <ele>391</ele>
        <time>2013-01-12T10:02:41.000Z</time>
      </trkpt>
      <trkpt lat="43.62392" lon="5.73185">
        <ele>391</ele>
        <time>2013-01-12T10:02:53.000Z</time>
      </trkpt>
      <trkpt lat="43.62349" lon="5.73207">
        <ele>385.20001220703</ele>
        <time>2013-01-12T10:03:04.000Z</time>
      </trkpt>
      <trkpt lat="43.62334" lon="5.7316">
        <ele>381.79998779297</ele>
        <time>2013-01-12T10:03:18.000Z</time>
      </trkpt>
      <trkpt lat="43.62362" lon="5.73104">
        <ele>384</ele>
        <time>2013-01-12T10:03:31.000Z</time>
      </trkpt>
      <trkpt lat="43.62381" lon="5.73041">
        <ele>384.39999389648</ele>
        <time>2013-01-12T10:03:42.000Z</time>
      </trkpt>
      <trkpt lat="43.62397" lon="5.72976">
        <ele>385</ele>
        <time>2013-01-12T10:03:53.000Z</time>
      </trkpt>
      <trkpt lat="43.62404" lon="5.72911">
        <ele>386.20001220703</ele>
        <time>2013-01-12T10:04:04.000Z</time>
      </trkpt>
      <trkpt lat="43.62406" lon="5.72845">
        <ele>387.60000610352</ele>
        <time>2013-01-12T10:04:16.000Z</time>
      </trkpt>
      <trkpt lat="43.62437" lon="5.72833">
        <ele>392.79998779297</ele>
        <time>2013-01-12T10:05:35.000Z</time>
      </trkpt>
      <trkpt lat="43.62483" lon="5.72833">
        <ele>401.79998779297</ele>
        <time>2013-01-12T10:05:55.000Z</time>
      </trkpt>
      <trkpt lat="43.62529" lon="5.7283">
        <ele>414.20001220703</ele>
        <time>2013-01-12T10:06:27.000Z</time>
      </trkpt>
      <trkpt lat="43.62566" lon="5.72804">
        <ele>424.79998779297</ele>
        <time>2013-01-12T10:10:09.000Z</time>
      </trkpt>
      <trkpt lat="43.62578" lon="5.7274">
        <ele>425.60000610352</ele>
        <time>2013-01-12T10:11:12.000Z</time>
      </trkpt>
      <trkpt lat="43.62604" lon="5.72686">
        <ele>430.60000610352</ele>
        <time>2013-01-12T10:13:49.000Z</time>
      </trkpt>
      <trkpt lat="43.62631" lon="5.72638">
        <ele>434.20001220703</ele>
        <time>2013-01-12T10:14:25.000Z</time>
      </trkpt>
      <trkpt lat="43.62671" lon="5.7261">
        <ele>442.79998779297</ele>
        <time>2013-01-12T10:15:12.000Z</time>
      </trkpt>
      <trkpt lat="43.62704" lon="5.72573">
        <ele>449</ele>
        <time>2013-01-12T10:16:45.000Z</time>
      </trkpt>
      <trkpt lat="43.62726" lon="5.72517">
        <ele>450.20001220703</ele>
        <time>2013-01-12T10:17:34.000Z</time>
      </trkpt>
      <trkpt lat="43.62768" lon="5.72495">
        <ele>458.79998779297</ele>
        <time>2013-01-12T10:18:24.000Z</time>
      </trkpt>
      <trkpt lat="43.62817" lon="5.72492">
        <ele>465.79998779297</ele>
        <time>2013-01-12T10:18:58.000Z</time>
      </trkpt>
      <trkpt lat="43.62868" lon="5.72491">
        <ele>470.20001220703</ele>
        <time>2013-01-12T10:19:52.000Z</time>
      </trkpt>
      <trkpt lat="43.62899" lon="5.72468">
        <ele>472.39999389648</ele>
        <time>2013-01-12T10:22:16.000Z</time>
      </trkpt>
      <trkpt lat="43.62913" lon="5.72409">
        <ele>476.79998779297</ele>
        <time>2013-01-12T10:22:47.000Z</time>
      </trkpt>
      <trkpt lat="43.6292" lon="5.72348">
        <ele>481.60000610352</ele>
        <time>2013-01-12T10:23:20.000Z</time>
      </trkpt>
      <trkpt lat="43.62933" lon="5.72289">
        <ele>482.39999389648</ele>
        <time>2013-01-12T10:24:08.000Z</time>
      </trkpt>
      <trkpt lat="43.62945" lon="5.72236">
        <ele>482.39999389648</ele>
        <time>2013-01-12T10:25:39.000Z</time>
      </trkpt>
      <trkpt lat="43.62988" lon="5.72205">
        <ele>483.39999389648</ele>
        <time>2013-01-12T10:26:04.000Z</time>
      </trkpt>
      <trkpt lat="43.63017" lon="5.72155">
        <ele>482.20001220703</ele>
        <time>2013-01-12T10:26:41.000Z</time>
      </trkpt>
      <trkpt lat="43.63041" lon="5.72097">
        <ele>480.20001220703</ele>
        <time>2013-01-12T10:27:02.000Z</time>
      </trkpt>
      <trkpt lat="43.63056" lon="5.72037">
        <ele>484.20001220703</ele>
        <time>2013-01-12T10:27:26.000Z</time>
      </trkpt>
      <trkpt lat="43.63077" lon="5.71979">
        <ele>489</ele>
        <time>2013-01-12T10:27:51.000Z</time>
      </trkpt>
      <trkpt lat="43.63104" lon="5.71926">
        <ele>487</ele>
        <time>2013-01-12T10:28:06.000Z</time>
      </trkpt>
      <trkpt lat="43.63137" lon="5.71886">
        <ele>485.20001220703</ele>
        <time>2013-01-12T10:29:11.000Z</time>
      </trkpt>
      <trkpt lat="43.63184" lon="5.71884">
        <ele>487.20001220703</ele>
        <time>2013-01-12T10:30:13.000Z</time>
      </trkpt>
      <trkpt lat="43.63233" lon="5.71893">
        <ele>482.79998779297</ele>
        <time>2013-01-12T10:30:44.000Z</time>
      </trkpt>
      <trkpt lat="43.63282" lon="5.71884">
        <ele>478.39999389648</ele>
        <time>2013-01-12T10:31:08.000Z</time>
      </trkpt>
      <trkpt lat="43.63304" lon="5.71833">
        <ele>481.60000610352</ele>
        <time>2013-01-12T10:33:55.000Z</time>
      </trkpt>
      <trkpt lat="43.63291" lon="5.71773">
        <ele>485.60000610352</ele>
        <time>2013-01-12T10:34:20.000Z</time>
      </trkpt>
      <trkpt lat="43.63305" lon="5.71711">
        <ele>489.39999389648</ele>
        <time>2013-01-12T10:34:47.000Z</time>
      </trkpt>
      <trkpt lat="43.63328" lon="5.71661">
        <ele>491.60000610352</ele>
        <time>2013-01-12T10:35:13.000Z</time>
      </trkpt>
      <trkpt lat="43.63364" lon="5.71625">
        <ele>494</ele>
        <time>2013-01-12T10:35:43.000Z</time>
      </trkpt>
      <trkpt lat="43.63392" lon="5.71573">
        <ele>499.79998779297</ele>
        <time>2013-01-12T10:36:14.000Z</time>
      </trkpt>
      <trkpt lat="43.63426" lon="5.71526">
        <ele>503.60000610352</ele>
        <time>2013-01-12T10:36:43.000Z</time>
      </trkpt>
      <trkpt lat="43.63459" lon="5.71479">
        <ele>509.79998779297</ele>
        <time>2013-01-12T10:37:10.000Z</time>
      </trkpt>
      <trkpt lat="43.63493" lon="5.71438">
        <ele>516.40002441406</ele>
        <time>2013-01-12T10:37:36.000Z</time>
      </trkpt>
      <trkpt lat="43.63523" lon="5.71384">
        <ele>520.20001220703</ele>
        <time>2013-01-12T10:39:10.000Z</time>
      </trkpt>
      <trkpt lat="43.63541" lon="5.71328">
        <ele>517.59997558594</ele>
        <time>2013-01-12T10:39:22.000Z</time>
      </trkpt>
      <trkpt lat="43.63575" lon="5.71275">
        <ele>510.20001220703</ele>
        <time>2013-01-12T10:39:31.000Z</time>
      </trkpt>
      <trkpt lat="43.6361" lon="5.71224">
        <ele>506.20001220703</ele>
        <time>2013-01-12T10:39:38.000Z</time>
      </trkpt>
      <trkpt lat="43.63645" lon="5.71177">
        <ele>500.60000610352</ele>
        <time>2013-01-12T10:39:44.000Z</time>
      </trkpt>
      <trkpt lat="43.63661" lon="5.71116">
        <ele>491.39999389648</ele>
        <time>2013-01-12T10:39:50.000Z</time>
      </trkpt>
      <trkpt lat="43.63686" lon="5.71065">
        <ele>490</ele>
        <time>2013-01-12T10:39:57.000Z</time>
      </trkpt>
      <trkpt lat="43.63715" lon="5.71026">
        <ele>494</ele>
        <time>2013-01-12T10:40:17.000Z</time>
      </trkpt>
      <trkpt lat="43.6375" lon="5.70978">
        <ele>498</ele>
        <time>2013-01-12T10:40:48.000Z</time>
      </trkpt>
      <trkpt lat="43.63793" lon="5.70931">
        <ele>502.60000610352</ele>
        <time>2013-01-12T10:41:08.000Z</time>
      </trkpt>
      <trkpt lat="43.63825" lon="5.70879">
        <ele>503.20001220703</ele>
        <time>2013-01-12T10:41:23.000Z</time>
      </trkpt>
      <trkpt lat="43.63855" lon="5.70831">
        <ele>504.60000610352</ele>
        <time>2013-01-12T10:41:35.000Z</time>
      </trkpt>
      <trkpt lat="43.63888" lon="5.7078">
        <ele>509.39999389648</ele>
        <time>2013-01-12T10:41:52.000Z</time>
      </trkpt>
      <trkpt lat="43.63916" lon="5.70729">
        <ele>509.39999389648</ele>
        <time>2013-01-12T10:42:07.000Z</time>
      </trkpt>
      <trkpt lat="43.63947" lon="5.70676">
        <ele>515.40002441406</ele>
        <time>2013-01-12T10:42:24.000Z</time>
      </trkpt>
      <trkpt lat="43.63985" lon="5.70628">
        <ele>520.20001220703</ele>
        <time>2013-01-12T10:42:48.000Z</time>
      </trkpt>
      <trkpt lat="43.64009" lon="5.70571">
        <ele>523.40002441406</ele>
        <time>2013-01-12T10:43:12.000Z</time>
      </trkpt>
      <trkpt lat="43.64043" lon="5.7052">
        <ele>534</ele>
        <time>2013-01-12T10:43:39.000Z</time>
      </trkpt>
      <trkpt lat="43.64081" lon="5.70471">
        <ele>536.40002441406</ele>
        <time>2013-01-12T10:44:09.000Z</time>
      </trkpt>
      <trkpt lat="43.64115" lon="5.70424">
        <ele>544.20001220703</ele>
        <time>2013-01-12T10:44:40.000Z</time>
      </trkpt>
      <trkpt lat="43.64142" lon="5.70369">
        <ele>552.20001220703</ele>
        <time>2013-01-12T10:45:09.000Z</time>
      </trkpt>
      <trkpt lat="43.64172" lon="5.70316">
        <ele>557</ele>
        <time>2013-01-12T10:45:42.000Z</time>
      </trkpt>
      <trkpt lat="43.64207" lon="5.70268">
        <ele>568.20001220703</ele>
        <time>2013-01-12T10:46:19.000Z</time>
      </trkpt>
      <trkpt lat="43.64225" lon="5.70212">
        <ele>576</ele>
        <time>2013-01-12T10:46:56.000Z</time>
      </trkpt>
      <trkpt lat="43.64269" lon="5.70175">
        <ele>581.59997558594</ele>
        <time>2013-01-12T10:47:35.000Z</time>
      </trkpt>
      <trkpt lat="43.64307" lon="5.70152">
        <ele>589.59997558594</ele>
        <time>2013-01-12T10:48:13.000Z</time>
      </trkpt>
      <trkpt lat="43.64326" lon="5.70094">
        <ele>596.59997558594</ele>
        <time>2013-01-12T10:49:13.000Z</time>
      </trkpt>
      <trkpt lat="43.64362" lon="5.70114">
        <ele>596</ele>
        <time>2013-01-12T10:50:13.000Z</time>
      </trkpt>
      <trkpt lat="43.64401" lon="5.70129">
        <ele>597.20001220703</ele>
        <time>2013-01-12T10:53:19.000Z</time>
      </trkpt>
      <trkpt lat="43.64424" lon="5.70074">
        <ele>597.20001220703</ele>
        <time>2013-01-12T10:53:31.000Z</time>
      </trkpt>
      <trkpt lat="43.64467" lon="5.70049">
        <ele>593.20001220703</ele>
        <time>2013-01-12T10:53:37.000Z</time>
      </trkpt>
      <trkpt lat="43.64508" lon="5.7002">
        <ele>588.40002441406</ele>
        <time>2013-01-12T10:53:44.000Z</time>
      </trkpt>
      <trkpt lat="43.64484" lon="5.70072">
        <ele>586.40002441406</ele>
        <time>2013-01-12T10:53:57.000Z</time>
      </trkpt>
      <trkpt lat="43.64493" lon="5.70094">
        <ele>584.20001220703</ele>
        <time>2013-01-12T10:54:07.000Z</time>
      </trkpt>
      <trkpt lat="43.64536" lon="5.70069">
        <ele>578</ele>
        <time>2013-01-12T10:54:15.000Z</time>
      </trkpt>
      <trkpt lat="43.64587" lon="5.70063">
        <ele>570.20001220703</ele>
        <time>2013-01-12T10:54:23.000Z</time>
      </trkpt>
      <trkpt lat="43.64625" lon="5.70091">
        <ele>566.40002441406</ele>
        <time>2013-01-12T10:54:31.000Z</time>
      </trkpt>
      <trkpt lat="43.64665" lon="5.70137">
        <ele>562.20001220703</ele>
        <time>2013-01-12T10:54:38.000Z</time>
      </trkpt>
      <trkpt lat="43.64707" lon="5.70164">
        <ele>560.20001220703</ele>
        <time>2013-01-12T10:54:46.000Z</time>
      </trkpt>
      <trkpt lat="43.64742" lon="5.7019">
        <ele>558.40002441406</ele>
        <time>2013-01-12T10:54:56.000Z</time>
      </trkpt>
      <trkpt lat="43.64778" lon="5.7024">
        <ele>555</ele>
        <time>2013-01-12T10:55:05.000Z</time>
      </trkpt>
      <trkpt lat="43.64821" lon="5.70282">
        <ele>549.20001220703</ele>
        <time>2013-01-12T10:55:11.000Z</time>
      </trkpt>
      <trkpt lat="43.64858" lon="5.70317">
        <ele>541.79998779297</ele>
        <time>2013-01-12T10:55:17.000Z</time>
      </trkpt>
      <trkpt lat="43.64899" lon="5.70336">
        <ele>535</ele>
        <time>2013-01-12T10:55:22.000Z</time>
      </trkpt>
      <trkpt lat="43.64945" lon="5.70329">
        <ele>530</ele>
        <time>2013-01-12T10:55:27.000Z</time>
      </trkpt>
      <trkpt lat="43.64992" lon="5.70335">
        <ele>524.79998779297</ele>
        <time>2013-01-12T10:55:33.000Z</time>
      </trkpt>
      <trkpt lat="43.65035" lon="5.70374">
        <ele>523</ele>
        <time>2013-01-12T10:55:39.000Z</time>
      </trkpt>
      <trkpt lat="43.65083" lon="5.70381">
        <ele>518.20001220703</ele>
        <time>2013-01-12T10:55:45.000Z</time>
      </trkpt>
      <trkpt lat="43.65112" lon="5.70338">
        <ele>516</ele>
        <time>2013-01-12T10:55:51.000Z</time>
      </trkpt>
      <trkpt lat="43.65138" lon="5.70279">
        <ele>513.79998779297</ele>
        <time>2013-01-12T10:55:58.000Z</time>
      </trkpt>
      <trkpt lat="43.65167" lon="5.70225">
        <ele>508.60000610352</ele>
        <time>2013-01-12T10:56:05.000Z</time>
      </trkpt>
      <trkpt lat="43.65204" lon="5.70209">
        <ele>505.79998779297</ele>
        <time>2013-01-12T10:56:16.000Z</time>
      </trkpt>
      <trkpt lat="43.65247" lon="5.70194">
        <ele>499.60000610352</ele>
        <time>2013-01-12T10:56:27.000Z</time>
      </trkpt>
      <trkpt lat="43.65294" lon="5.7017">
        <ele>494.79998779297</ele>
        <time>2013-01-12T10:56:35.000Z</time>
      </trkpt>
      <trkpt lat="43.65334" lon="5.70139">
        <ele>493.20001220703</ele>
        <time>2013-01-12T10:56:43.000Z</time>
      </trkpt>
      <trkpt lat="43.65383" lon="5.7015">
        <ele>491</ele>
        <time>2013-01-12T10:56:51.000Z</time>
      </trkpt>
      <trkpt lat="43.65424" lon="5.7011">
        <ele>488.39999389648</ele>
        <time>2013-01-12T10:56:59.000Z</time>
      </trkpt>
      <trkpt lat="43.65466" lon="5.70086">
        <ele>486.39999389648</ele>
        <time>2013-01-12T10:57:05.000Z</time>
      </trkpt>
      <trkpt lat="43.65518" lon="5.70094">
        <ele>485.79998779297</ele>
        <time>2013-01-12T10:57:12.000Z</time>
      </trkpt>
      <trkpt lat="43.65559" lon="5.7007">
        <ele>483.20001220703</ele>
        <time>2013-01-12T10:57:18.000Z</time>
      </trkpt>
      <trkpt lat="43.65594" lon="5.70022">
        <ele>480.39999389648</ele>
        <time>2013-01-12T10:57:28.000Z</time>
      </trkpt>
      <trkpt lat="43.65621" lon="5.69975">
        <ele>478.79998779297</ele>
        <time>2013-01-12T10:57:36.000Z</time>
      </trkpt>
      <trkpt lat="43.6566" lon="5.69942">
        <ele>474.60000610352</ele>
        <time>2013-01-12T10:57:44.000Z</time>
      </trkpt>
      <trkpt lat="43.65679" lon="5.69937">
        <ele>474</ele>
        <time>2013-01-12T10:58:08.000Z</time>
      </trkpt>
      <trkpt lat="43.65712" lon="5.69896">
        <ele>473.39999389648</ele>
        <time>2013-01-12T10:58:18.000Z</time>
      </trkpt>
      <trkpt lat="43.65742" lon="5.69844">
        <ele>467.60000610352</ele>
        <time>2013-01-12T10:58:26.000Z</time>
      </trkpt>
      <trkpt lat="43.65773" lon="5.69795">
        <ele>463.60000610352</ele>
        <time>2013-01-12T10:58:58.000Z</time>
      </trkpt>
      <trkpt lat="43.65807" lon="5.69751">
        <ele>459</ele>
        <time>2013-01-12T10:59:10.000Z</time>
      </trkpt>
      <trkpt lat="43.65838" lon="5.69703">
        <ele>454.60000610352</ele>
        <time>2013-01-12T10:59:20.000Z</time>
      </trkpt>
      <trkpt lat="43.65859" lon="5.69644">
        <ele>450.79998779297</ele>
        <time>2013-01-12T10:59:28.000Z</time>
      </trkpt>
      <trkpt lat="43.65867" lon="5.69576">
        <ele>447.79998779297</ele>
        <time>2013-01-12T10:59:36.000Z</time>
      </trkpt>
      <trkpt lat="43.6588" lon="5.69513">
        <ele>445.20001220703</ele>
        <time>2013-01-12T10:59:43.000Z</time>
      </trkpt>
      <trkpt lat="43.65888" lon="5.69451">
        <ele>443.20001220703</ele>
        <time>2013-01-12T10:59:50.000Z</time>
      </trkpt>
      <trkpt lat="43.65919" lon="5.694">
        <ele>441.20001220703</ele>
        <time>2013-01-12T10:59:59.000Z</time>
      </trkpt>
      <trkpt lat="43.65949" lon="5.69352">
        <ele>437.79998779297</ele>
        <time>2013-01-12T11:00:09.000Z</time>
      </trkpt>
      <trkpt lat="43.65937" lon="5.69297">
        <ele>436.60000610352</ele>
        <time>2013-01-12T11:00:18.000Z</time>
      </trkpt>
      <trkpt lat="43.65923" lon="5.69239">
        <ele>435.79998779297</ele>
        <time>2013-01-12T11:00:26.000Z</time>
      </trkpt>
      <trkpt lat="43.65888" lon="5.69193">
        <ele>435.79998779297</ele>
        <time>2013-01-12T11:00:33.000Z</time>
      </trkpt>
      <trkpt lat="43.65853" lon="5.69155">
        <ele>434.79998779297</ele>
        <time>2013-01-12T11:00:40.000Z</time>
      </trkpt>
      <trkpt lat="43.65819" lon="5.69108">
        <ele>435.79998779297</ele>
        <time>2013-01-12T11:00:49.000Z</time>
      </trkpt>
      <trkpt lat="43.6579" lon="5.69058">
        <ele>436.39999389648</ele>
        <time>2013-01-12T11:00:58.000Z</time>
      </trkpt>
      <trkpt lat="43.65753" lon="5.69014">
        <ele>435.39999389648</ele>
        <time>2013-01-12T11:01:08.000Z</time>
      </trkpt>
      <trkpt lat="43.65716" lon="5.68973">
        <ele>435.79998779297</ele>
        <time>2013-01-12T11:01:16.000Z</time>
      </trkpt>
      <trkpt lat="43.6569" lon="5.68914">
        <ele>434.20001220703</ele>
        <time>2013-01-12T11:01:24.000Z</time>
      </trkpt>
      <trkpt lat="43.65665" lon="5.6886">
        <ele>433.20001220703</ele>
        <time>2013-01-12T11:01:31.000Z</time>
      </trkpt>
      <trkpt lat="43.65631" lon="5.68811">
        <ele>431.79998779297</ele>
        <time>2013-01-12T11:01:38.000Z</time>
      </trkpt>
      <trkpt lat="43.65602" lon="5.6876">
        <ele>429.20001220703</ele>
        <time>2013-01-12T11:01:45.000Z</time>
      </trkpt>
      <trkpt lat="43.65591" lon="5.68699">
        <ele>428.39999389648</ele>
        <time>2013-01-12T11:01:52.000Z</time>
      </trkpt>
      <trkpt lat="43.65594" lon="5.68636">
        <ele>427.20001220703</ele>
        <time>2013-01-12T11:02:00.000Z</time>
      </trkpt>
      <trkpt lat="43.6558" lon="5.68572">
        <ele>426</ele>
        <time>2013-01-12T11:02:09.000Z</time>
      </trkpt>
      <trkpt lat="43.65569" lon="5.68512">
        <ele>421.39999389648</ele>
        <time>2013-01-12T11:02:18.000Z</time>
      </trkpt>
      <trkpt lat="43.65545" lon="5.68458">
        <ele>419.20001220703</ele>
        <time>2013-01-12T11:02:27.000Z</time>
      </trkpt>
      <trkpt lat="43.6552" lon="5.68401">
        <ele>417.79998779297</ele>
        <time>2013-01-12T11:02:35.000Z</time>
      </trkpt>
      <trkpt lat="43.65485" lon="5.68359">
        <ele>416.20001220703</ele>
        <time>2013-01-12T11:02:47.000Z</time>
      </trkpt>
      <trkpt lat="43.65439" lon="5.68346">
        <ele>418.20001220703</ele>
        <time>2013-01-12T11:03:02.000Z</time>
      </trkpt>
      <trkpt lat="43.6539" lon="5.68345">
        <ele>419.20001220703</ele>
        <time>2013-01-12T11:03:16.000Z</time>
      </trkpt>
      <trkpt lat="43.65344" lon="5.68359">
        <ele>419.79998779297</ele>
        <time>2013-01-12T11:03:24.000Z</time>
      </trkpt>
      <trkpt lat="43.65301" lon="5.68328">
        <ele>419.60000610352</ele>
        <time>2013-01-12T11:03:33.000Z</time>
      </trkpt>
      <trkpt lat="43.65274" lon="5.6828">
        <ele>418.79998779297</ele>
        <time>2013-01-12T11:03:44.000Z</time>
      </trkpt>
      <trkpt lat="43.65232" lon="5.68254">
        <ele>418</ele>
        <time>2013-01-12T11:03:57.000Z</time>
      </trkpt>
      <trkpt lat="43.65188" lon="5.68263">
        <ele>418.39999389648</ele>
        <time>2013-01-12T11:04:04.000Z</time>
      </trkpt>
      <trkpt lat="43.65151" lon="5.68219">
        <ele>414.60000610352</ele>
        <time>2013-01-12T11:04:13.000Z</time>
      </trkpt>
      <trkpt lat="43.65111" lon="5.68187">
        <ele>413.39999389648</ele>
        <time>2013-01-12T11:04:21.000Z</time>
      </trkpt>
      <trkpt lat="43.65068" lon="5.68163">
        <ele>412.79998779297</ele>
        <time>2013-01-12T11:04:29.000Z</time>
      </trkpt>
      <trkpt lat="43.65026" lon="5.68136">
        <ele>414.20001220703</ele>
        <time>2013-01-12T11:04:38.000Z</time>
      </trkpt>
      <trkpt lat="43.64986" lon="5.68102">
        <ele>414.60000610352</ele>
        <time>2013-01-12T11:04:47.000Z</time>
      </trkpt>
      <trkpt lat="43.64951" lon="5.68057">
        <ele>413.39999389648</ele>
        <time>2013-01-12T11:04:57.000Z</time>
      </trkpt>
      <trkpt lat="43.64914" lon="5.68015">
        <ele>412.20001220703</ele>
        <time>2013-01-12T11:05:08.000Z</time>
      </trkpt>
      <trkpt lat="43.64894" lon="5.67956">
        <ele>407.39999389648</ele>
        <time>2013-01-12T11:05:20.000Z</time>
      </trkpt>
      <trkpt lat="43.64844" lon="5.67966">
        <ele>407.60000610352</ele>
        <time>2013-01-12T11:05:28.000Z</time>
      </trkpt>
      <trkpt lat="43.64799" lon="5.67972">
        <ele>408.39999389648</ele>
        <time>2013-01-12T11:06:46.000Z</time>
      </trkpt>
      <trkpt lat="43.64751" lon="5.67973">
        <ele>409</ele>
        <time>2013-01-12T11:06:56.000Z</time>
      </trkpt>
      <trkpt lat="43.64704" lon="5.67964">
        <ele>409.39999389648</ele>
        <time>2013-01-12T11:07:09.000Z</time>
      </trkpt>
      <trkpt lat="43.6466" lon="5.67938">
        <ele>408.60000610352</ele>
        <time>2013-01-12T11:07:19.000Z</time>
      </trkpt>
      <trkpt lat="43.64616" lon="5.67927">
        <ele>408.39999389648</ele>
        <time>2013-01-12T11:07:28.000Z</time>
      </trkpt>
      <trkpt lat="43.6457" lon="5.67912">
        <ele>407.60000610352</ele>
        <time>2013-01-12T11:07:38.000Z</time>
      </trkpt>
      <trkpt lat="43.64546" lon="5.67858">
        <ele>405.79998779297</ele>
        <time>2013-01-12T11:07:47.000Z</time>
      </trkpt>
      <trkpt lat="43.64551" lon="5.67788">
        <ele>403.39999389648</ele>
        <time>2013-01-12T11:07:54.000Z</time>
      </trkpt>
      <trkpt lat="43.64567" lon="5.67726">
        <ele>401.39999389648</ele>
        <time>2013-01-12T11:08:00.000Z</time>
      </trkpt>
      <trkpt lat="43.64577" lon="5.67661">
        <ele>398.79998779297</ele>
        <time>2013-01-12T11:08:06.000Z</time>
      </trkpt>
      <trkpt lat="43.64565" lon="5.67598">
        <ele>397.39999389648</ele>
        <time>2013-01-12T11:08:12.000Z</time>
      </trkpt>
      <trkpt lat="43.64542" lon="5.6754">
        <ele>395.60000610352</ele>
        <time>2013-01-12T11:08:18.000Z</time>
      </trkpt>
      <trkpt lat="43.64529" lon="5.67474">
        <ele>392.39999389648</ele>
        <time>2013-01-12T11:08:24.000Z</time>
      </trkpt>
      <trkpt lat="43.64523" lon="5.67401">
        <ele>387.79998779297</ele>
        <time>2013-01-12T11:08:30.000Z</time>
      </trkpt>
      <trkpt lat="43.64518" lon="5.67336">
        <ele>384.39999389648</ele>
        <time>2013-01-12T11:08:36.000Z</time>
      </trkpt>
      <trkpt lat="43.64512" lon="5.67271">
        <ele>380.79998779297</ele>
        <time>2013-01-12T11:08:43.000Z</time>
      </trkpt>
      <trkpt lat="43.64529" lon="5.67212">
        <ele>378.60000610352</ele>
        <time>2013-01-12T11:08:51.000Z</time>
      </trkpt>
      <trkpt lat="43.64524" lon="5.67146">
        <ele>374.20001220703</ele>
        <time>2013-01-12T11:09:07.000Z</time>
      </trkpt>
      <trkpt lat="43.64536" lon="5.67084">
        <ele>372.20001220703</ele>
        <time>2013-01-12T11:09:21.000Z</time>
      </trkpt>
      <trkpt lat="43.6454" lon="5.67016">
        <ele>371.39999389648</ele>
        <time>2013-01-12T11:09:33.000Z</time>
      </trkpt>
      <trkpt lat="43.64515" lon="5.66964">
        <ele>368.39999389648</ele>
        <time>2013-01-12T11:09:45.000Z</time>
      </trkpt>
      <trkpt lat="43.64485" lon="5.66914">
        <ele>366</ele>
        <time>2013-01-12T11:09:54.000Z</time>
      </trkpt>
      <trkpt lat="43.64449" lon="5.66863">
        <ele>360.79998779297</ele>
        <time>2013-01-12T11:10:03.000Z</time>
      </trkpt>
      <trkpt lat="43.64417" lon="5.66812">
        <ele>359.20001220703</ele>
        <time>2013-01-12T11:10:11.000Z</time>
      </trkpt>
      <trkpt lat="43.64388" lon="5.66759">
        <ele>355.39999389648</ele>
        <time>2013-01-12T11:10:19.000Z</time>
      </trkpt>
      <trkpt lat="43.64357" lon="5.66705">
        <ele>353.79998779297</ele>
        <time>2013-01-12T11:10:27.000Z</time>
      </trkpt>
      <trkpt lat="43.64326" lon="5.66661">
        <ele>354.79998779297</ele>
        <time>2013-01-12T11:10:37.000Z</time>
      </trkpt>
      <trkpt lat="43.64311" lon="5.66605">
        <ele>354.60000610352</ele>
        <time>2013-01-12T11:10:49.000Z</time>
      </trkpt>
      <trkpt lat="43.64295" lon="5.66548">
        <ele>353.39999389648</ele>
        <time>2013-01-12T11:11:05.000Z</time>
      </trkpt>
      <trkpt lat="43.64277" lon="5.66488">
        <ele>351.39999389648</ele>
        <time>2013-01-12T11:11:17.000Z</time>
      </trkpt>
      <trkpt lat="43.64272" lon="5.66426">
        <ele>351.20001220703</ele>
        <time>2013-01-12T11:11:29.000Z</time>
      </trkpt>
      <trkpt lat="43.64227" lon="5.66417">
        <ele>347.20001220703</ele>
        <time>2013-01-12T11:11:41.000Z</time>
      </trkpt>
      <trkpt lat="43.64201" lon="5.66413">
        <ele>343.20001220703</ele>
        <time>2013-01-12T11:12:09.000Z</time>
      </trkpt>
      <trkpt lat="43.64211" lon="5.66352">
        <ele>344</ele>
        <time>2013-01-12T11:12:23.000Z</time>
      </trkpt>
      <trkpt lat="43.64185" lon="5.66298">
        <ele>340.60000610352</ele>
        <time>2013-01-12T11:12:35.000Z</time>
      </trkpt>
      <trkpt lat="43.64175" lon="5.66236">
        <ele>340.20001220703</ele>
        <time>2013-01-12T11:12:44.000Z</time>
      </trkpt>
      <trkpt lat="43.64142" lon="5.66185">
        <ele>336.39999389648</ele>
        <time>2013-01-12T11:12:52.000Z</time>
      </trkpt>
      <trkpt lat="43.64108" lon="5.6613">
        <ele>332.60000610352</ele>
        <time>2013-01-12T11:13:00.000Z</time>
      </trkpt>
      <trkpt lat="43.64077" lon="5.66092">
        <ele>329.39999389648</ele>
        <time>2013-01-12T11:13:10.000Z</time>
      </trkpt>
      <trkpt lat="43.64083" lon="5.66024">
        <ele>328.60000610352</ele>
        <time>2013-01-12T11:13:18.000Z</time>
      </trkpt>
      <trkpt lat="43.64092" lon="5.65956">
        <ele>325.79998779297</ele>
        <time>2013-01-12T11:13:25.000Z</time>
      </trkpt>
      <trkpt lat="43.64063" lon="5.65901">
        <ele>320.60000610352</ele>
        <time>2013-01-12T11:13:33.000Z</time>
      </trkpt>
      <trkpt lat="43.64047" lon="5.65903">
        <ele>319.60000610352</ele>
        <time>2013-01-12T11:14:18.000Z</time>
      </trkpt>
      <trkpt lat="43.63998" lon="5.65908">
        <ele>316.79998779297</ele>
        <time>2013-01-12T11:14:29.000Z</time>
      </trkpt>
      <trkpt lat="43.63959" lon="5.65881">
        <ele>318.20001220703</ele>
        <time>2013-01-12T11:14:44.000Z</time>
      </trkpt>
      <trkpt lat="43.63938" lon="5.65819">
        <ele>318.39999389648</ele>
        <time>2013-01-12T11:15:13.000Z</time>
      </trkpt>
      <trkpt lat="43.63929" lon="5.65762">
        <ele>315.39999389648</ele>
        <time>2013-01-12T11:15:34.000Z</time>
      </trkpt>
      <trkpt lat="43.63912" lon="5.65714">
        <ele>314.20001220703</ele>
        <time>2013-01-12T11:15:50.000Z</time>
      </trkpt>
      <trkpt lat="43.63889" lon="5.65662">
        <ele>313.79998779297</ele>
        <time>2013-01-12T11:16:05.000Z</time>
      </trkpt>
      <trkpt lat="43.63874" lon="5.65612">
        <ele>314.20001220703</ele>
        <time>2013-01-12T11:16:22.000Z</time>
      </trkpt>
      <trkpt lat="43.63831" lon="5.65598">
        <ele>316.20001220703</ele>
        <time>2013-01-12T11:18:02.000Z</time>
      </trkpt>
      <trkpt lat="43.63788" lon="5.65563">
        <ele>311.39999389648</ele>
        <time>2013-01-12T11:18:33.000Z</time>
      </trkpt>
      <trkpt lat="43.63745" lon="5.65539">
        <ele>308</ele>
        <time>2013-01-12T11:18:43.000Z</time>
      </trkpt>
      <trkpt lat="43.63714" lon="5.65501">
        <ele>307</ele>
        <time>2013-01-12T11:18:58.000Z</time>
      </trkpt>
      <trkpt lat="43.63693" lon="5.65491">
        <ele>306.79998779297</ele>
        <time>2013-01-12T11:19:31.000Z</time>
      </trkpt>
      <trkpt lat="43.6365" lon="5.65475">
        <ele>306</ele>
        <time>2013-01-12T11:19:47.000Z</time>
      </trkpt>
      <trkpt lat="43.63658" lon="5.65417">
        <ele>310.79998779297</ele>
        <time>2013-01-12T11:20:04.000Z</time>
      </trkpt>
      <trkpt lat="43.63644" lon="5.65356">
        <ele>306.39999389648</ele>
        <time>2013-01-12T11:20:16.000Z</time>
      </trkpt>
      <trkpt lat="43.63615" lon="5.65308">
        <ele>305</ele>
        <time>2013-01-12T11:20:24.000Z</time>
      </trkpt>
      <trkpt lat="43.63605" lon="5.65258">
        <ele>307.20001220703</ele>
        <time>2013-01-12T11:20:38.000Z</time>
      </trkpt>
      <trkpt lat="43.63638" lon="5.65215">
        <ele>302.79998779297</ele>
        <time>2013-01-12T11:20:55.000Z</time>
      </trkpt>
      <trkpt lat="43.63651" lon="5.65148">
        <ele>298.79998779297</ele>
        <time>2013-01-12T11:21:08.000Z</time>
      </trkpt>
      <trkpt lat="43.6364" lon="5.65088">
        <ele>294.20001220703</ele>
        <time>2013-01-12T11:21:43.000Z</time>
      </trkpt>
      <trkpt lat="43.63614" lon="5.65037">
        <ele>293</ele>
        <time>2013-01-12T11:22:03.000Z</time>
      </trkpt>
      <trkpt lat="43.63602" lon="5.64971">
        <ele>287.79998779297</ele>
        <time>2013-01-12T11:22:15.000Z</time>
      </trkpt>
      <trkpt lat="43.63558" lon="5.64944">
        <ele>291.20001220703</ele>
        <time>2013-01-12T11:22:27.000Z</time>
      </trkpt>
      <trkpt lat="43.63544" lon="5.64901">
        <ele>292.20001220703</ele>
        <time>2013-01-12T11:22:40.000Z</time>
      </trkpt>
      <trkpt lat="43.6358" lon="5.6488">
        <ele>284</ele>
        <time>2013-01-12T11:22:55.000Z</time>
      </trkpt>
      <trkpt lat="43.63573" lon="5.64814">
        <ele>286</ele>
        <time>2013-01-12T11:23:12.000Z</time>
      </trkpt>
      <trkpt lat="43.63567" lon="5.64749">
        <ele>285.79998779297</ele>
        <time>2013-01-12T11:23:28.000Z</time>
      </trkpt>
      <trkpt lat="43.63557" lon="5.64684">
        <ele>285.79998779297</ele>
        <time>2013-01-12T11:23:41.000Z</time>
      </trkpt>
      <trkpt lat="43.63555" lon="5.64621">
        <ele>285.20001220703</ele>
        <time>2013-01-12T11:23:51.000Z</time>
      </trkpt>
      <trkpt lat="43.63571" lon="5.64562">
        <ele>283.39999389648</ele>
        <time>2013-01-12T11:24:00.000Z</time>
      </trkpt>
      <trkpt lat="43.63596" lon="5.64507">
        <ele>280.20001220703</ele>
        <time>2013-01-12T11:24:10.000Z</time>
      </trkpt>
      <trkpt lat="43.63622" lon="5.64455">
        <ele>276.60000610352</ele>
        <time>2013-01-12T11:24:20.000Z</time>
      </trkpt>
      <trkpt lat="43.63665" lon="5.64425">
        <ele>274</ele>
        <time>2013-01-12T11:24:30.000Z</time>
      </trkpt>
      <trkpt lat="43.63697" lon="5.6438">
        <ele>274</ele>
        <time>2013-01-12T11:24:40.000Z</time>
      </trkpt>
      <trkpt lat="43.63705" lon="5.64316">
        <ele>273</ele>
        <time>2013-01-12T11:24:54.000Z</time>
      </trkpt>
      <trkpt lat="43.6368" lon="5.64267">
        <ele>268.60000610352</ele>
        <time>2013-01-12T11:25:06.000Z</time>
      </trkpt>
      <trkpt lat="43.63693" lon="5.642">
        <ele>270.20001220703</ele>
        <time>2013-01-12T11:25:16.000Z</time>
      </trkpt>
      <trkpt lat="43.63707" lon="5.64135">
        <ele>272</ele>
        <time>2013-01-12T11:25:27.000Z</time>
      </trkpt>
      <trkpt lat="43.63718" lon="5.64074">
        <ele>273</ele>
        <time>2013-01-12T11:25:37.000Z</time>
      </trkpt>
      <trkpt lat="43.63719" lon="5.64017">
        <ele>273.39999389648</ele>
        <time>2013-01-12T11:25:47.000Z</time>
      </trkpt>
      <trkpt lat="43.63712" lon="5.63948">
        <ele>272.39999389648</ele>
        <time>2013-01-12T11:25:58.000Z</time>
      </trkpt>
      <trkpt lat="43.63706" lon="5.63884">
        <ele>272</ele>
        <time>2013-01-12T11:26:09.000Z</time>
      </trkpt>
      <trkpt lat="43.63695" lon="5.63825">
        <ele>270.79998779297</ele>
        <time>2013-01-12T11:26:23.000Z</time>
      </trkpt>
    </trkseg>
  </trk>
</gpx>